Time;durP1;ratioP1;P1;durP2;ratioP2;P2;SDS_P1;SDS_P2;PMS_P1;PMS_P2;Temp;Humidity;BMP_temperature;BMP_pressure;BME280_temperature;BME280_humidity;BME280_pressure;Samples;Min_cycle;Max_cycle;Signal;HPM_P1;HPM_P2
2023/10/13 00:02:04;;;;;;;9.53;7.07;;;;;;;15.54;100.00;100478.28;5029429;28;20213;-81
2023/10/13 00:04:32;;;;;;;8.47;6.60;;;;;;;15.57;100.00;100483.41;5031624;28;20197;-81
2023/10/13 00:07:01;;;;;;;9.13;5.80;;;;;;;15.55;100.00;100490.72;5028067;28;20209;-81
2023/10/13 00:09:32;;;;;;;7.27;5.83;;;;;;;15.57;100.00;100480.72;5027940;28;20277;-82
2023/10/13 00:12:00;;;;;;;7.27;5.97;;;;;;;15.58;100.00;100479.75;5027283;28;20209;-81
2023/10/13 00:14:33;;;;;;;6.60;6.00;;;;;;;15.59;100.00;100484.94;5025091;28;20224;-80
2023/10/13 00:17:04;;;;;;;7.73;6.43;;;;;;;15.60;100.00;100483.97;5026210;28;20641;-80
2023/10/13 00:19:37;;;;;;;7.47;6.67;;;;;;;15.63;100.00;100480.19;5027485;28;20235;-81
2023/10/13 00:22:09;;;;;;;8.63;6.77;;;;;;;15.65;100.00;100475.53;5027445;28;20196;-80
2023/10/13 00:24:42;;;;;;;8.17;6.43;;;;;;;15.68;100.00;100467.22;5029337;28;20230;-80
2023/10/13 00:27:24;;;;;;;7.90;6.70;;;;;;;15.69;100.00;100471.59;5032671;28;20214;-80
2023/10/13 00:30:04;;;;;;;7.07;6.23;;;;;;;15.70;100.00;100470.63;5026261;28;20261;-81
2023/10/13 00:32:31;;;;;;;7.57;5.63;;;;;;;15.70;100.00;100467.06;5030508;28;20254;-81
2023/10/13 00:34:58;;;;;;;9.47;6.43;;;;;;;15.71;100.00;100466.09;5026728;28;20208;-80
2023/10/13 00:37:28;;;;;;;8.97;6.60;;;;;;;15.73;100.00;100462.28;5032825;28;20218;-80
2023/10/13 00:39:56;;;;;;;7.67;6.37;;;;;;;15.74;100.00;100460.47;5031530;28;20247;-80
2023/10/13 00:42:33;;;;;;;8.47;6.50;;;;;;;15.73;100.00;100462.28;5026564;28;20204;-80
2023/10/13 00:45:00;;;;;;;9.53;6.83;;;;;;;15.73;100.00;100461.44;5026563;28;20200;-80
2023/10/13 00:47:48;;;;;;;7.73;6.57;;;;;;;15.73;100.00;100456.94;5031870;28;20207;-81
2023/10/13 00:50:15;;;;;;;8.37;7.00;;;;;;;15.75;100.00;100441.53;5030337;28;20226;-82
2023/10/13 00:52:46;;;;;;;6.87;6.17;;;;;;;15.77;100.00;100444.06;5024489;28;20797;-80
2023/10/13 00:55:13;;;;;;;9.60;7.10;;;;;;;15.77;100.00;100436.00;5026530;28;20292;-80
2023/10/13 00:57:42;;;;;;;9.07;6.80;;;;;;;15.78;100.00;100426.97;5028980;28;20213;-80
2023/10/13 01:00:18;;;;;;;8.07;6.27;;;;;;;15.81;100.00;100435.59;5029131;28;20603;-81
2023/10/13 01:02:45;;;;;;;9.53;7.17;;;;;;;15.80;100.00;100436.59;5029293;28;20319;-80
2023/10/13 01:05:19;;;;;;;8.70;7.00;;;;;;;15.79;100.00;100437.56;5024894;28;20216;-81
2023/10/13 01:07:46;;;;;;;7.70;6.90;;;;;;;15.83;100.00;100436.31;5030418;28;20200;-81
2023/10/13 01:10:14;;;;;;;9.63;7.37;;;;;;;15.87;100.00;100429.69;5024361;28;20264;-81
2023/10/13 01:12:42;;;;;;;9.80;7.27;;;;;;;15.87;100.00;100424.31;5028319;28;20228;-81
2023/10/13 01:15:11;;;;;;;9.97;8.27;;;;;;;15.88;100.00;100430.53;5040631;28;20211;-81
2023/10/13 01:17:36;;;;;;;10.20;8.20;;;;;;;15.89;100.00;100425.03;5031498;28;20203;-81
2023/10/13 01:20:04;;;;;;;10.77;8.93;;;;;;;15.91;100.00;100430.28;5028685;28;20233;-82
2023/10/13 01:22:31;;;;;;;12.23;9.77;;;;;;;15.91;100.00;100433.81;5029463;28;20319;-81
2023/10/13 01:25:12;;;;;;;11.80;9.23;;;;;;;15.93;100.00;100425.63;5023830;28;20216;-81
2023/10/13 01:27:38;;;;;;;11.50;9.40;;;;;;;15.94;100.00;100422.78;5028241;28;20209;-81
2023/10/13 01:30:10;;;;;;;12.00;9.27;;;;;;;15.98;100.00;100417.97;5026117;28;20251;-80
2023/10/13 01:32:40;;;;;;;11.10;9.07;;;;;;;15.96;100.00;100411.91;5029851;28;20675;-80
2023/10/13 01:35:08;;;;;;;11.20;9.13;;;;;;;15.96;100.00;100415.44;5031105;28;20685;-80
2023/10/13 01:37:33;;;;;;;11.37;10.00;;;;;;;15.96;100.00;100415.44;5026360;28;20296;-81
2023/10/13 01:40:01;;;;;;;13.00;9.57;;;;;;;15.97;100.00;100401.00;5026613;28;20878;-81
2023/10/13 01:42:30;;;;;;;12.43;8.97;;;;;;;16.04;100.00;100403.16;5028567;28;20208;-80
2023/10/13 01:44:58;;;;;;;13.57;10.20;;;;;;;16.04;100.00;100403.16;5025049;28;20204;-81
2023/10/13 01:47:27;;;;;;;11.77;8.83;;;;;;;16.04;100.00;100400.47;5026357;28;20220;-81
2023/10/13 01:49:53;;;;;;;10.00;9.00;;;;;;;16.03;100.00;100393.41;5022353;28;20220;-80
2023/10/13 01:52:19;;;;;;;12.87;9.03;;;;;;;16.03;100.00;100388.03;5026596;28;20255;-81
2023/10/13 01:54:46;;;;;;;13.43;9.17;;;;;;;16.03;100.00;100388.88;5026386;28;20206;-81
2023/10/13 01:57:17;;;;;;;11.30;9.87;;;;;;;16.07;100.00;100389.47;5027787;28;20212;-81
2023/10/13 01:59:44;;;;;;;13.20;10.33;;;;;;;16.02;100.00;100391.69;5035330;28;20335;-80
2023/10/13 02:02:12;;;;;;;14.03;9.90;;;;;;;16.00;100.00;100391.00;5030113;28;20233;-81
2023/10/13 02:04:42;;;;;;;11.03;9.47;;;;;;;15.98;100.00;100394.66;5024298;28;20210;-80
2023/10/13 02:07:14;;;;;;;11.40;9.00;;;;;;;16.03;100.00;100382.66;5025660;28;20213;-81
2023/10/13 02:09:40;;;;;;;12.93;9.60;;;;;;;16.02;100.00;100387.19;5028344;28;20316;-81
2023/10/13 02:12:06;;;;;;;10.43;9.43;;;;;;;16.03;100.00;100388.03;5028949;28;20277;-81
2023/10/13 02:14:33;;;;;;;10.40;8.57;;;;;;;16.08;100.00;100396.53;5026256;28;20213;-80
2023/10/13 02:17:12;;;;;;;9.63;8.27;;;;;;;16.05;100.00;100399.50;5027711;28;20213;-80
2023/10/13 02:19:39;;;;;;;10.53;8.90;;;;;;;16.04;100.00;100395.09;5026171;28;20238;-80
2023/10/13 02:22:09;;;;;;;9.37;6.90;;;;;;;16.05;100.00;100389.59;5038893;28;20276;-80
2023/10/13 02:24:39;;;;;;;9.63;7.57;;;;;;;16.06;100.00;100382.38;5035711;28;20212;-80
2023/10/13 02:27:14;;;;;;;8.53;7.17;;;;;;;16.08;100.00;100369.66;5029672;28;20213;-80
2023/10/13 02:29:41;;;;;;;8.40;6.80;;;;;;;16.05;100.00;100378.84;5030485;28;20597;-80
2023/10/13 02:32:13;;;;;;;12.77;7.67;;;;;;;16.07;100.00;100382.25;5025391;28;20211;-80
2023/10/13 02:34:43;;;;;;;10.37;6.90;;;;;;;16.08;100.00;100380.41;5030205;28;20212;-80
2023/10/13 02:37:10;;;;;;;10.63;7.43;;;;;;;16.10;100.00;100379.28;5031609;28;20201;-81
2023/10/13 02:39:36;;;;;;;9.07;7.13;;;;;;;16.10;100.00;100360.50;5032377;28;20243;-80
2023/10/13 02:42:06;;;;;;;7.73;6.80;;;;;;;16.09;100.00;100366.00;5033253;28;20198;-80
2023/10/13 02:44:33;;;;;;;7.00;6.40;;;;;;;16.10;100.00;100359.63;5031076;28;20260;-81
2023/10/13 02:47:02;;;;;;;6.67;6.00;;;;;;;16.09;100.00;100366.84;5037345;28;20240;-80
2023/10/13 02:49:31;;;;;;;6.77;6.17;;;;;;;16.10;100.00;100371.22;5029237;28;20669;-80
2023/10/13 02:51:59;;;;;;;6.47;5.47;;;;;;;16.11;100.00;100372.94;5029492;28;20198;-80
2023/10/13 02:54:30;;;;;;;9.53;6.33;;;;;;;16.17;100.00;100366.13;5033283;28;20681;-81
2023/10/13 02:56:57;;;;;;;9.40;6.47;;;;;;;16.16;100.00;100372.50;5035087;28;20640;-81
2023/10/13 02:59:34;;;;;;;7.83;6.30;;;;;;;16.14;100.00;100369.09;5032017;28;20241;-81
2023/10/13 03:02:06;;;;;;;6.23;5.40;;;;;;;16.16;100.00;100361.75;5030019;28;20198;-82
2023/10/13 03:04:32;;;;;;;5.87;5.27;;;;;;;16.18;100.00;100352.56;5032026;28;20616;-81
2023/10/13 03:06:59;;;;;;;6.30;5.37;;;;;;;16.17;100.00;100352.69;5027342;28;20213;-80
2023/10/13 03:09:25;;;;;;;6.23;5.33;;;;;;;16.17;100.00;100347.31;5040640;28;20259;-81
2023/10/13 03:11:52;;;;;;;6.83;5.60;;;;;;;16.19;100.00;100340.81;5028973;28;20702;-81
2023/10/13 03:14:30;;;;;;;6.20;5.57;;;;;;;16.20;100.00;100336.31;5027407;28;20206;-82
2023/10/13 03:17:02;;;;;;;7.80;5.70;;;;;;;16.21;100.00;100335.31;5028064;28;20194;-80
2023/10/13 03:19:32;;;;;;;6.47;5.77;;;;;;;16.26;100.00;100327.69;5028696;28;20750;-81
2023/10/13 03:22:07;;;;;;;6.57;5.50;;;;;;;16.26;100.00;100331.22;5031858;28;20210;-82
2023/10/13 03:24:33;;;;;;;7.33;6.00;;;;;;;16.28;100.00;100326.56;5025662;28;20227;-81
2023/10/13 03:27:07;;;;;;;6.17;5.43;;;;;;;16.28;100.00;100328.41;5034025;28;20657;-80
2023/10/13 03:29:35;;;;;;;7.10;5.90;;;;;;;16.30;100.00;100326.41;5029856;28;20232;-80
2023/10/13 03:32:11;;;;;;;6.83;5.57;;;;;;;16.30;100.00;100321.03;5032443;28;20203;-82
2023/10/13 03:34:49;;;;;;;7.17;5.67;;;;;;;16.31;100.00;100326.25;5028240;28;20199;-80
2023/10/13 03:37:18;;;;;;;7.40;5.37;;;;;;;16.31;100.00;100311.97;5029346;28;20263;-81
2023/10/13 03:39:45;;;;;;;5.83;5.27;;;;;;;16.32;100.00;100310.97;5029583;28;20265;-81
2023/10/13 03:42:18;;;;;;;6.27;5.13;;;;;;;16.30;100.00;100304.91;5028236;28;20208;-81
2023/10/13 03:44:46;;;;;;;7.03;5.17;;;;;;;16.25;100.00;100308.03;5029691;28;20232;-82
2023/10/13 03:47:26;;;;;;;7.27;5.27;;;;;;;16.22;100.00;100304.78;5030605;28;20293;-81
2023/10/13 03:50:14;;;;;;;8.40;4.20;;;;;;;16.18;100.00;100303.34;5033669;28;20227;-81
2023/10/13 03:52:40;;;;;;;5.93;4.83;;;;;;;16.12;100.00;100295.88;5026314;28;20206;-81
2023/10/13 03:55:16;;;;;;;6.30;4.57;;;;;;;16.09;100.00;100302.38;5033098;28;20660;-80
2023/10/13 03:57:42;;;;;;;5.43;4.90;;;;;;;16.05;100.00;100300.94;5028610;28;20205;-81
2023/10/13 04:00:12;;;;;;;6.47;4.97;;;;;;;16.04;100.00;100296.56;5026178;28;20235;-81
2023/10/13 04:02:45;;;;;;;6.03;5.03;;;;;;;16.00;100.00;100292.47;5027872;28;20243;-81
2023/10/13 04:05:30;;;;;;;5.57;4.67;;;;;;;15.98;100.00;100291.75;5030378;28;20201;-81
2023/10/13 04:16:34;;;;;;;5.70;5.10;;;;;;;15.86;100.00;100272.25;5027473;28;20296;-82
2023/10/13 04:19:08;;;;;;;6.90;5.67;;;;;;;15.85;100.00;100283.97;5027665;28;20256;-83
2023/10/13 04:21:55;;;;;;;6.23;5.20;;;;;;;15.84;100.00;100276.91;5032232;28;20229;-83
2023/10/13 04:24:27;;;;;;;6.97;5.53;;;;;;;15.82;100.00;100270.81;5027147;28;20357;-84
2023/10/13 04:29:51;;;;;;;6.30;5.70;;;;;;;15.79;100.00;100262.19;5032594;28;20312;-82
2023/10/13 04:32:28;;;;;;;6.67;5.80;;;;;;;15.79;100.00;100262.19;5034464;28;20213;-83
2023/10/13 04:34:58;;;;;;;6.00;5.40;;;;;;;15.82;100.00;100261.91;5031084;28;20694;-82
2023/10/13 04:37:29;;;;;;;6.93;6.00;;;;;;;15.82;100.00;100259.22;5027620;28;20299;-85
2023/10/13 04:39:59;;;;;;;8.10;6.30;;;;;;;15.82;100.00;100252.00;5030000;28;20243;-82
2023/10/13 04:42:49;;;;;;;8.10;6.87;;;;;;;15.82;100.00;100249.34;5029571;28;20206;-82
2023/10/13 04:45:38;;;;;;;9.00;6.53;;;;;;;15.82;100.00;100243.97;5027569;28;20265;-81
2023/10/13 04:48:17;;;;;;;8.30;7.50;;;;;;;15.82;100.00;100227.84;5027192;28;20627;-84
2023/10/13 04:50:45;;;;;;;7.83;7.03;;;;;;;15.80;100.00;100235.19;5030750;28;20205;-82
2023/10/13 04:53:30;;;;;;;9.07;7.13;;;;;;;15.84;100.00;100236.63;5027503;28;20305;-83
2023/10/13 04:56:38;;;;;;;7.67;6.87;;;;;;;15.83;100.00;100231.38;5023835;28;20209;-83
2023/10/13 05:04:38;;;;;;;15.13;8.80;;;;;;;15.82;100.00;100224.31;5025247;28;20203;-84
2023/10/13 05:46:20;;;;;;;8.77;7.50;;;;;;;15.94;100.00;100185.59;5023174;28;20205;-82
2023/10/13 05:48:42;;;;;;;8.97;7.47;;;;;;;15.93;100.00;100182.06;5029649;28;20315;-83
2023/10/13 06:30:03;;;;;;;7.50;6.03;;;;;;;16.39;100.00;100147.31;5028350;28;20281;-83
2023/10/13 06:32:32;;;;;;;9.37;6.20;;;;;;;16.39;100.00;100147.31;5034111;28;20210;-83
2023/10/13 06:35:04;;;;;;;10.03;6.97;;;;;;;16.41;100.00;100145.34;5030805;28;20205;-81
2023/10/13 06:37:32;;;;;;;7.23;5.90;;;;;;;16.43;100.00;100149.56;5032391;28;20219;-82
2023/10/13 06:40:06;;;;;;;8.93;6.17;;;;;;;16.46;100.00;100141.22;5034589;28;20227;-83
2023/10/13 06:42:34;;;;;;;8.03;6.53;;;;;;;16.47;100.00;100140.22;5028884;28;20290;-82
2023/10/13 06:45:08;;;;;;;7.77;5.53;;;;;;;16.47;100.00;100142.91;5031775;28;20634;-82
2023/10/13 06:47:39;;;;;;;10.73;6.53;;;;;;;16.49;100.00;100132.84;5032330;28;20751;-81
2023/10/13 06:50:15;;;;;;;10.33;6.00;;;;;;;16.51;100.00;100136.22;5034630;28;20250;-83
2023/10/13 06:52:42;;;;;;;7.80;5.17;;;;;;;16.48;100.00;100136.53;5034893;28;20966;-83
2023/10/13 06:55:10;;;;;;;8.50;6.27;;;;;;;16.50;100.00;100136.38;5037344;28;20669;-83
2023/10/13 06:57:42;;;;;;;8.90;6.50;;;;;;;16.50;100.00;100129.16;5023993;28;20298;-82
2023/10/13 07:00:19;;;;;;;7.03;6.33;;;;;;;16.54;100.00;100135.09;5026909;28;20751;-82
2023/10/13 07:02:47;;;;;;;7.83;6.23;;;;;;;16.55;100.00;100129.56;5028777;28;20789;-81
2023/10/13 07:05:14;;;;;;;9.60;6.77;;;;;;;16.56;100.00;100114.28;5034698;28;20218;-82
2023/10/13 07:07:40;;;;;;;7.90;7.03;;;;;;;16.61;100.00;100110.16;5031289;28;20206;-84
2023/10/13 07:10:09;;;;;;;9.17;6.50;;;;;;;16.60;100.00;100107.63;5030869;28;20233;-81
2023/10/13 07:12:37;;;;;;;9.10;6.87;;;;;;;16.62;100.00;100111.88;5028908;28;20218;-82
2023/10/13 07:15:05;;;;;;;7.50;6.73;;;;;;;16.63;100.00;100096.63;5033306;28;20211;-81
2023/10/13 07:17:37;;;;;;;9.00;7.10;;;;;;;16.66;100.00;100096.28;5033467;28;20214;-82
2023/10/13 07:20:14;;;;;;;9.10;7.30;;;;;;;16.67;100.00;100096.16;5030698;28;20659;-81
2023/10/13 07:22:54;;;;;;;8.77;6.93;;;;;;;16.71;100.00;100090.47;5031232;28;20202;-83
2023/10/13 07:25:23;;;;;;;9.17;6.57;;;;;;;16.72;100.00;100103.78;5021767;28;20293;-82
2023/10/13 07:27:50;;;;;;;8.67;6.30;;;;;;;16.73;100.00;100097.41;5025053;28;20203;-83
2023/10/13 07:30:19;;;;;;;8.73;6.70;;;;;;;16.73;100.00;100100.09;5031356;28;20232;-81
2023/10/13 07:32:47;;;;;;;7.37;6.53;;;;;;;16.77;100.00;100101.47;5027656;28;20207;-81
2023/10/13 07:35:17;;;;;;;7.53;6.07;;;;;;;16.81;100.00;100094.81;5031076;28;20225;-83
2023/10/13 07:37:44;;;;;;;7.10;6.10;;;;;;;16.87;100.00;100094.19;5028992;28;20238;-83
2023/10/13 07:40:39;;;;;;;6.20;4.87;;;;;;;16.92;100.00;100085.69;5029983;28;20605;-81
2023/10/13 07:43:08;;;;;;;8.90;6.50;;;;;;;16.92;100.00;100080.31;5034006;28;21398;-82
2023/10/13 07:45:37;;;;;;;8.87;6.03;;;;;;;16.95;100.00;100088.06;5034303;28;20208;-81
2023/10/13 07:48:12;;;;;;;8.10;5.47;;;;;;;17.06;100.00;100066.31;5033131;28;20210;-81
2023/10/13 07:50:40;;;;;;;7.03;4.90;;;;;;;17.09;100.00;100066.03;5034147;28;20202;-83
2023/10/13 07:53:22;;;;;;;6.23;4.80;;;;;;;17.09;100.00;100057.09;5035219;28;20206;-84
2023/10/13 07:55:53;;;;;;;7.70;4.87;;;;;;;17.15;100.00;100054.66;5031512;28;20536;-82
2023/10/13 07:58:24;;;;;;;6.43;4.40;;;;;;;17.17;100.00;100044.59;5030036;28;20266;-81
2023/10/13 08:00:54;;;;;;;6.47;5.00;;;;;;;17.19;100.00;100052.50;5028184;28;20345;-82
2023/10/13 08:03:35;;;;;;;5.30;4.67;;;;;;;17.21;100.00;100037.88;5029480;28;20206;-81
2023/10/13 08:06:06;;;;;;;5.60;4.20;;;;;;;17.27;100.00;100042.66;5025264;28;20571;-81
2023/10/13 08:08:38;;;;;;;6.70;4.50;;;;;;;17.28;100.00;100043.50;5030715;28;20232;-81
2023/10/13 08:11:11;;;;;;;4.97;3.77;;;;;;;17.29;100.00;100021.81;5024161;28;20211;-82
2023/10/13 08:13:38;;;;;;;5.20;4.10;;;;;;;17.32;100.00;100034.13;5028169;28;20545;-82
2023/10/13 08:16:08;;;;;;;5.37;3.93;;;;;;;17.38;100.00;100027.28;5027916;28;20247;-82
2023/10/13 08:18:35;;;;;;;4.50;3.40;;;;;;;17.44;100.00;100032.84;5028582;28;20906;-82
2023/10/13 08:21:04;;;;;;;5.93;3.10;;;;;;;17.45;100.00;100020.25;5035616;28;20257;-81
2023/10/13 08:32:13;;;;;;;3.53;3.13;;;;;;;17.68;100.00;100027.69;5038640;27;20206;-74
2023/10/13 08:34:59;;;;;;;5.80;3.20;;;;;;;17.68;100.00;100026.84;5039434;27;20211;-74
2023/10/13 08:37:29;;;;;;;4.63;3.00;;;;;;;17.74;100.00;100018.13;5046490;27;20207;-74
2023/10/13 08:40:21;;;;;;;3.60;3.30;;;;;;;17.74;100.00;100025.34;5035284;27;20281;-75
2023/10/13 08:43:09;;;;;;;3.70;2.80;;;;;;;17.80;100.00;100027.44;5095186;22;20255;-76
2023/10/13 08:45:58;;;;;;;4.27;3.20;;;;;;;17.86;100.00;100027.66;5000453;28;20209;-76
2023/10/13 08:48:35;;;;;;;4.73;3.07;;;;;;;17.88;100.00;100025.66;4999937;28;20233;-76
2023/10/13 08:51:12;;;;;;;3.53;2.50;;;;;;;17.93;100.00;100015.22;4999023;28;20217;-76
2023/10/13 08:53:47;;;;;;;3.73;2.97;;;;;;;18.00;100.00;100008.19;4996768;28;20242;-76
2023/10/13 08:56:18;;;;;;;2.93;2.13;;;;;;;18.07;100.00;100004.88;4993331;28;20225;-76
2023/10/13 09:01:45;;;;;;;6.63;2.83;;;;;;;18.13;100.00;99996.97;5000602;28;20212;-77
2023/10/13 09:04:21;;;;;;;4.23;3.70;;;;;;;18.18;100.00;100004.56;4994331;28;20275;-76
2023/10/13 09:07:03;;;;;;;3.57;2.80;;;;;;;18.22;100.00;100005.94;4994581;28;20626;-77
2023/10/13 09:09:34;;;;;;;3.10;2.33;;;;;;;18.28;100.00;100005.28;4994436;28;20225;-76
2023/10/13 09:12:09;;;;;;;4.37;3.30;;;;;;;18.37;100.00;100015.09;4997385;28;20242;-77
2023/10/13 09:14:37;;;;;;;7.03;4.70;;;;;;;18.39;100.00;100018.50;4996238;28;20211;-76
2023/10/13 09:17:12;;;;;;;3.80;2.90;;;;;;;18.47;100.00;100009.56;4996870;28;20351;-77
2023/10/13 09:19:49;;;;;;;6.20;3.67;;;;;;;18.55;100.00;100006.91;4989416;28;20625;-76
2023/10/13 09:22:35;;;;;;;5.50;2.93;;;;;;;18.58;100.00;100002.03;4999362;28;20231;-77
2023/10/13 09:25:02;;;;;;;4.57;3.60;;;;;;;18.64;100.00;100011.34;4989577;28;20588;-77
2023/10/13 09:27:32;;;;;;;4.73;2.97;;;;;;;18.69;100.00;99982.88;4997372;28;20226;-77
2023/10/13 09:30:09;;;;;;;3.63;2.67;;;;;;;18.79;100.00;99992.69;4996049;28;20233;-77
2023/10/13 09:32:46;;;;;;;4.50;3.57;;;;;;;18.83;100.00;99991.31;4991575;28;20691;-76
2023/10/13 09:35:18;;;;;;;3.87;2.60;;;;;;;18.89;100.00;99980.72;4996140;28;20212;-76
2023/10/13 09:37:46;;;;;;;6.30;4.67;;;;;;;18.93;100.00;99965.03;4993125;28;21024;-77
2023/10/13 09:40:33;;;;;;;6.97;4.33;;;;;;;19.01;100.00;99965.88;4985499;28;20270;-77
2023/10/13 09:43:04;;;;;;;3.57;2.60;;;;;;;19.10;100.00;99966.75;4983835;28;20242;-77
2023/10/13 09:45:36;;;;;;;5.10;2.77;;;;;;;19.21;100.00;99955.59;4987267;28;20213;-77
2023/10/13 09:48:07;;;;;;;5.40;2.40;;;;;;;19.30;100.00;99954.59;4984934;28;20229;-77
2023/10/13 09:50:37;;;;;;;6.80;2.83;;;;;;;19.34;100.00;99942.44;4982671;28;20292;-77
2023/10/13 09:53:08;;;;;;;7.13;2.73;;;;;;;19.45;100.00;99945.78;4979356;28;20624;-77
2023/10/13 09:55:39;;;;;;;6.63;3.30;;;;;;;19.52;100.00;99933.34;4982235;28;20230;-76
2023/10/13 09:58:11;;;;;;;4.43;2.63;;;;;;;19.57;100.00;99931.78;4984621;28;20289;-77
2023/10/13 10:00:47;;;;;;;5.72;2.55;;;;;;;19.69;100.00;99925.00;4986289;28;20250;-77
2023/10/13 10:06:06;;;;;;;5.57;2.97;;;;;;;19.90;100.00;99915.47;4978404;28;20268;-77
2023/10/13 10:08:33;;;;;;;8.17;3.30;;;;;;;19.94;100.00;99911.41;4982053;28;20292;-77
2023/10/13 10:11:26;;;;;;;6.83;3.30;;;;;;;19.96;100.00;99907.50;4981904;28;21183;-78
2023/10/13 10:14:04;;;;;;;5.10;2.90;;;;;;;20.03;100.00;99911.22;4999442;28;20210;-77
2023/10/13 10:16:46;;;;;;;5.87;2.90;;;;;;;20.08;100.00;99892.56;4984732;28;20207;-78
2023/10/13 10:19:14;;;;;;;5.05;3.22;;;;;;;20.18;98.85;99888.81;4981475;28;20234;-75
2023/10/13 10:21:41;;;;;;;6.93;3.00;;;;;;;20.25;97.53;99879.81;4982991;28;20231;-75
2023/10/13 10:24:29;;;;;;;7.30;2.90;;;;;;;20.38;97.82;99871.16;4979926;28;20208;-74
2023/10/13 10:26:56;;;;;;;8.83;3.87;;;;;;;20.49;95.47;99881.56;4984698;28;20203;-74
2023/10/13 10:29:23;;;;;;;9.85;3.28;;;;;;;20.54;91.56;99865.66;4980075;28;20255;-75
2023/10/13 10:31:51;;;;;;;12.27;3.95;;;;;;;20.61;93.18;99863.88;4982550;28;20227;-75
2023/10/13 10:34:22;;;;;;;11.50;4.18;;;;;;;20.67;90.99;99862.31;4982019;28;20213;-74
2023/10/13 10:36:54;;;;;;;7.35;3.28;;;;;;;20.72;91.98;99871.59;4984078;28;20227;-75
2023/10/13 10:39:28;;;;;;;9.40;3.63;;;;;;;20.84;90.39;99852.22;4977914;28;20671;-74
2023/10/13 10:42:15;;;;;;;8.43;3.30;;;;;;;20.93;88.31;99845.72;4979123;28;20300;-75
2023/10/13 10:44:42;;;;;;;8.43;4.07;;;;;;;20.98;85.22;99856.81;4983473;28;20516;-75
2023/10/13 10:47:11;;;;;;;6.95;3.33;;;;;;;21.03;84.69;99863.38;4981523;28;20686;-75
2023/10/13 10:49:41;;;;;;;7.65;3.22;;;;;;;21.09;85.23;99853.69;4983317;28;20584;-75
2023/10/13 10:52:18;;;;;;;6.00;3.15;;;;;;;21.19;83.77;99843.41;4976190;28;20242;-75
2023/10/13 10:54:51;;;;;;;7.68;2.60;;;;;;;21.29;82.69;99840.47;4982156;28;20211;-75
2023/10/13 10:57:18;;;;;;;9.55;3.90;;;;;;;21.32;81.77;99843.63;4979263;28;20216;-75
2023/10/13 10:59:45;;;;;;;8.27;3.50;;;;;;;21.40;81.44;99848.97;4990499;28;20203;-75
2023/10/13 11:02:15;;;;;;;6.70;3.35;;;;;;;21.39;81.86;99836.47;4981386;28;20227;-75
2023/10/13 11:04:50;;;;;;;8.63;4.18;;;;;;;21.43;80.98;99828.81;4977125;28;20208;-75
2023/10/13 11:07:23;;;;;;;8.73;3.58;;;;;;;21.45;81.41;99824.88;4976565;28;20224;-75
2023/10/13 11:09:52;;;;;;;10.02;4.47;;;;;;;21.49;81.40;99836.19;4982848;28;20272;-75
2023/10/13 11:12:25;;;;;;;9.85;3.78;;;;;;;21.58;81.79;99798.97;4978405;28;20639;-74
2023/10/13 11:15:02;;;;;;;6.93;3.85;;;;;;;21.61;80.73;99798.63;4982909;28;20222;-74
2023/10/13 11:17:41;;;;;;;10.93;4.53;;;;;;;21.60;80.98;99807.78;4981253;28;20207;-74
2023/10/13 11:20:17;;;;;;;8.95;3.53;;;;;;;21.61;79.84;99795.91;4985998;28;20264;-74
2023/10/13 11:22:47;;;;;;;7.78;3.50;;;;;;;21.64;79.30;99790.13;4982053;28;20247;-75
2023/10/13 11:25:23;;;;;;;10.10;3.75;;;;;;;21.67;79.34;99792.44;4982210;28;20671;-75
2023/10/13 11:27:56;;;;;;;9.18;4.15;;;;;;;21.70;79.39;99795.59;4981314;28;20243;-74
2023/10/13 11:30:29;;;;;;;7.18;3.67;;;;;;;21.74;78.25;99801.47;4983009;28;20214;-75
2023/10/13 11:33:00;;;;;;;7.95;3.95;;;;;;;21.78;77.11;99781.94;4978597;28;20585;-74
2023/10/13 11:35:48;;;;;;;8.88;4.43;;;;;;;21.79;77.18;99796.34;4982211;28;20736;-75
2023/10/13 11:38:25;;;;;;;9.02;3.90;;;;;;;21.82;77.68;99782.41;4983327;28;20219;-75
2023/10/13 11:41:06;;;;;;;5.20;3.80;;;;;;;21.86;77.88;99782.84;4979838;28;20292;-74
2023/10/13 11:43:45;;;;;;;6.72;4.18;;;;;;;21.87;78.05;99774.53;4983678;28;20234;-75
2023/10/13 11:46:14;;;;;;;8.93;3.97;;;;;;;21.90;77.05;99771.44;4978931;28;20208;-75
2023/10/13 11:48:42;;;;;;;8.38;4.45;;;;;;;22.00;75.43;99758.47;4981225;28;20274;-74
2023/10/13 11:51:17;;;;;;;7.28;4.18;;;;;;;22.05;74.76;99760.56;4980252;28;20651;-75
2023/10/13 11:53:44;;;;;;;7.75;4.68;;;;;;;22.05;74.05;99761.41;4982929;28;20388;-74
2023/10/13 11:56:11;;;;;;;8.63;3.42;;;;;;;22.13;74.43;99746.91;4977721;28;20668;-74
2023/10/13 11:58:38;;;;;;;7.45;3.58;;;;;;;22.15;73.64;99737.53;4983001;28;20287;-75
2023/10/13 12:01:20;;;;;;;9.55;3.53;;;;;;;22.23;73.09;99733.00;4983602;28;20618;-75
2023/10/13 12:06:46;;;;;;;15.05;4.53;;;;;;;22.37;72.18;99729.41;4979782;28;20692;-75
2023/10/13 12:09:41;;;;;;;6.20;4.57;;;;;;;22.39;72.03;99728.16;4980472;28;20223;-74
2023/10/13 12:12:02;;;;;;;8.30;3.90;;;;;;;22.44;71.70;99727.56;4979443;28;20242;-75
2023/10/13 12:14:29;;;;;;;13.35;4.32;;;;;;;22.48;71.13;99728.84;4981254;28;20235;-75
2023/10/13 12:17:03;;;;;;;7.28;4.70;;;;;;;22.52;70.50;99733.69;4983062;28;20697;-75
2023/10/13 12:19:30;;;;;;;11.40;4.28;;;;;;;22.59;70.63;99719.31;4981287;28;20241;-75
2023/10/13 12:22:04;;;;;;;7.03;3.78;;;;;;;22.66;67.95;99714.81;4980806;28;20228;-75
2023/10/13 12:24:39;;;;;;;6.93;3.70;;;;;;;22.66;68.20;99710.22;4979648;28;20215;-75
2023/10/13 12:27:18;;;;;;;10.10;4.57;;;;;;;22.66;68.30;99712.94;4982879;28;20215;-75
2023/10/13 12:29:46;;;;;;;9.00;4.15;;;;;;;22.67;68.18;99705.63;4978931;28;20246;-75
2023/10/13 12:32:13;;;;;;;6.80;3.78;;;;;;;22.67;68.65;99706.47;4983149;28;20223;-75
2023/10/13 12:35:00;;;;;;;13.48;4.63;;;;;;;22.67;69.25;99703.75;4978822;28;20204;-75
2023/10/13 12:37:49;;;;;;;9.05;4.22;;;;;;;22.69;69.11;99698.97;4978055;28;20216;-75
2023/10/13 12:51:40;;;;;;;9.55;4.10;;;;;;;22.84;67.30;99679.88;4980529;28;20743;-75
2023/10/13 12:54:14;;;;;;;11.18;4.32;;;;;;;22.87;67.98;99684.06;4974291;28;20718;-75
2023/10/13 12:56:41;;;;;;;8.93;3.80;;;;;;;22.88;67.04;99681.16;4976314;28;20260;-75
2023/10/13 12:59:09;;;;;;;6.45;3.60;;;;;;;22.90;66.62;99697.25;4974801;28;21184;-75
2023/10/13 13:01:41;;;;;;;6.72;3.85;;;;;;;22.90;66.54;99687.22;4978493;28;20215;-75
2023/10/13 13:04:11;;;;;;;6.30;3.90;;;;;;;22.89;65.75;99685.56;4977901;28;20295;-75
2023/10/13 13:06:40;;;;;;;6.47;3.78;;;;;;;22.89;65.90;99661.13;4977855;28;20269;-75
2023/10/13 13:09:09;;;;;;;8.55;3.92;;;;;;;22.87;65.64;99665.06;4978220;28;20223;-76
2023/10/13 13:11:39;;;;;;;11.00;4.55;;;;;;;22.86;66.51;99680.53;4979449;28;20243;-74
2023/10/13 13:14:07;;;;;;;12.73;4.45;;;;;;;22.85;66.52;99671.53;4980825;28;20670;-73
2023/10/13 13:16:34;;;;;;;9.40;4.47;;;;;;;22.90;66.98;99665.50;4998283;28;20195;-73
2023/10/13 13:19:03;;;;;;;9.75;4.03;;;;;;;22.90;66.84;99659.25;4981037;28;20685;-73
2023/10/13 13:21:29;;;;;;;8.32;4.53;;;;;;;22.91;66.25;99647.34;4978036;28;20539;-73
2023/10/13 13:23:56;;;;;;;9.35;4.15;;;;;;;22.91;66.17;99647.34;4996562;28;20282;-72
2023/10/13 13:26:24;;;;;;;9.57;4.10;;;;;;;22.90;66.16;99638.34;4983299;28;20203;-72
2023/10/13 13:28:51;;;;;;;6.40;4.05;;;;;;;22.92;66.52;99643.59;4977880;28;20809;-72
2023/10/13 13:31:18;;;;;;;9.60;4.63;;;;;;;22.92;66.37;99635.44;4983131;28;20203;-72
2023/10/13 13:33:44;;;;;;;11.43;4.88;;;;;;;22.91;66.46;99631.91;4977469;28;20234;-72
2023/10/13 13:36:13;;;;;;;11.77;4.47;;;;;;;22.90;66.55;99630.22;4982981;28;20208;-72
2023/10/13 13:38:40;;;;;;;15.25;5.70;;;;;;;22.90;66.84;99634.81;4980703;28;20222;-71
2023/10/13 13:41:15;;;;;;;11.15;4.22;;;;;;;22.92;66.86;99619.16;4979552;28;20234;-70
2023/10/13 13:43:54;;;;;;;7.95;3.95;;;;;;;22.94;67.08;99617.88;4982482;28;20786;-72
2023/10/13 13:46:24;;;;;;;11.02;4.25;;;;;;;22.92;67.52;99608.28;4980679;28;20269;-72
2023/10/13 13:48:57;;;;;;;7.57;4.13;;;;;;;22.94;66.93;99601.59;4976641;28;20299;-71